createdAt,value
2023-02-15T00:00:19.991Z,1.08
2023-02-15T00:03:06.106Z,1.12
2023-02-15T00:05:34.613Z,1.09
2023-02-15T00:08:03.074Z,1.05
2023-02-15T00:10:31.467Z,1.03
2023-02-15T00:13:01.587Z,1.02
2023-02-15T00:15:30.681Z,1.02
2023-02-15T00:17:59.101Z,0.99
2023-02-15T00:20:27.650Z,0.95
2023-02-15T00:22:56.253Z,0.98
2023-02-15T00:25:24.723Z,0.99
2023-02-15T00:27:53.277Z,0.98
2023-02-15T00:30:21.741Z,0.96
2023-02-15T00:32:50.222Z,0.94
2023-02-15T00:35:18.748Z,0.94
2023-02-15T00:37:47.156Z,0.88
2023-02-15T00:40:15.718Z,0.85
2023-02-15T00:42:44.170Z,0.83
2023-02-15T00:45:12.670Z,0.78
2023-02-15T00:47:41.441Z,0.75
2023-02-15T00:50:10.647Z,0.79
2023-02-15T00:52:39.994Z,0.81
2023-02-15T00:55:08.665Z,0.87
2023-02-15T00:57:37.109Z,0.88
2023-02-15T01:00:06.629Z,0.89
2023-02-15T01:02:35.138Z,0.87
2023-02-15T01:05:04.432Z,0.89
2023-02-15T01:07:32.892Z,0.87
2023-02-15T01:10:01.438Z,0.91
2023-02-15T01:12:29.951Z,0.86
2023-02-15T01:14:58.463Z,0.82
2023-02-15T01:17:27.619Z,0.84
2023-02-15T01:19:56.040Z,0.84
2023-02-15T01:22:24.695Z,0.78
2023-02-15T01:24:53.254Z,0.73
2023-02-15T01:27:21.705Z,0.74
2023-02-15T01:29:51.765Z,0.75
2023-02-15T01:32:20.192Z,0.77
2023-02-15T01:34:49.061Z,0.74
2023-02-15T01:37:17.579Z,0.74
2023-02-15T01:39:46.142Z,0.70
2023-02-15T01:42:15.277Z,0.69
2023-02-15T01:44:49.809Z,0.69
2023-02-15T01:47:41.475Z,0.71
2023-02-15T01:50:18.013Z,0.70
2023-02-15T01:53:22.993Z,0.64
2023-02-15T01:56:00.617Z,0.57
2023-02-15T01:58:30.469Z,0.53
2023-02-15T02:01:01.980Z,0.50
2023-02-15T02:04:08.361Z,0.45
2023-02-15T02:06:39.137Z,0.43
2023-02-15T02:09:08.791Z,0.40
2023-02-15T02:11:37.384Z,0.38
2023-02-15T02:14:05.933Z,0.41
2023-02-15T02:17:19.025Z,0.38
2023-02-15T02:19:59.278Z,0.35
2023-02-15T02:22:58.281Z,0.35
2023-02-15T02:25:52.534Z,0.39
2023-02-15T02:29:17.587Z,0.42
2023-02-15T02:32:50.036Z,0.47
2023-02-15T02:35:31.116Z,0.50
2023-02-15T02:39:07.361Z,0.50
2023-02-15T02:41:44.826Z,0.56
2023-02-15T02:44:34.824Z,0.57
2023-02-15T02:47:48.502Z,0.59
2023-02-15T02:50:23.685Z,0.61
2023-02-15T02:52:54.806Z,0.60
2023-02-15T02:55:23.149Z,0.60
2023-02-15T02:58:09.436Z,0.61
2023-02-15T03:00:43.974Z,0.62
2023-02-15T03:03:23.299Z,0.62
2023-02-15T03:05:56.802Z,0.62
2023-02-15T03:08:34.329Z,0.60
2023-02-15T03:11:04.972Z,0.58
2023-02-15T03:13:35.321Z,0.56
2023-02-15T03:16:24.855Z,0.51
2023-02-15T03:19:18.596Z,0.52
2023-02-15T03:21:58.843Z,0.50
2023-02-15T03:24:38.440Z,0.47
2023-02-15T03:27:18.342Z,0.45
2023-02-15T03:29:52.687Z,0.44
2023-02-15T03:32:21.328Z,0.43
2023-02-15T03:34:49.986Z,0.40
2023-02-15T03:37:35.468Z,0.38
2023-02-15T03:40:41.249Z,0.37
2023-02-15T03:44:00.385Z,0.35
2023-02-15T03:46:46.847Z,0.36
2023-02-15T03:49:36.042Z,0.39
2023-02-15T03:52:08.454Z,0.36
2023-02-15T03:54:44.337Z,0.29
2023-02-15T03:57:41.104Z,0.33
2023-02-15T04:00:31.370Z,0.30
2023-02-15T04:03:15.810Z,0.26
2023-02-15T04:05:46.091Z,0.25
2023-02-15T04:08:14.723Z,0.30
2023-02-15T04:10:56.189Z,0.31
2023-02-15T04:13:34.934Z,0.37
2023-02-15T04:16:07.501Z,0.36
2023-02-15T04:18:59.979Z,0.36
2023-02-15T04:21:49.694Z,0.34
2023-02-15T04:24:36.975Z,0.27
2023-02-15T04:27:06.806Z,0.25
2023-02-15T04:29:35.459Z,0.24
2023-02-15T04:32:04.103Z,0.23
2023-02-15T04:34:32.626Z,0.24
2023-02-15T04:37:01.147Z,0.21
2023-02-15T04:39:29.617Z,0.18
2023-02-15T04:41:58.037Z,0.17
2023-02-15T04:44:26.494Z,0.14
2023-02-15T04:46:55.918Z,0.07
2023-02-15T04:49:24.420Z,0.03
2023-02-15T04:51:52.992Z,0.02
2023-02-15T04:54:21.543Z,0.01
2023-02-15T04:56:50.020Z,-0.05
2023-02-15T04:59:18.482Z,-0.07
2023-02-15T05:01:46.946Z,-0.09
2023-02-15T05:04:15.453Z,-0.08
2023-02-15T05:06:43.889Z,-0.13
2023-02-15T05:09:13.647Z,-0.16
2023-02-15T05:11:42.113Z,-0.18
2023-02-15T05:14:10.732Z,-0.17
2023-02-15T05:16:39.669Z,-0.17
2023-02-15T05:19:08.252Z,-0.18
2023-02-15T05:21:36.936Z,-0.15
2023-02-15T05:24:25.732Z,-0.12
2023-02-15T05:27:12.725Z,-0.08
2023-02-15T05:29:41.126Z,-0.04
2023-02-15T05:32:09.832Z,-0.04
2023-02-15T05:34:38.306Z,-0.01
2023-02-15T05:37:06.877Z,-0.01
2023-02-15T05:39:35.379Z,0.01
2023-02-15T05:42:04.280Z,0.05
2023-02-15T05:44:32.732Z,0.06
2023-02-15T05:47:01.213Z,0.05
2023-02-15T05:49:30.017Z,0.05
2023-02-15T05:51:58.541Z,0.10
2023-02-15T05:54:27.161Z,0.13
2023-02-15T05:56:55.951Z,0.10
2023-02-15T05:59:24.583Z,0.10
2023-02-15T06:01:53.068Z,0.11
2023-02-15T06:04:21.918Z,0.14
2023-02-15T06:06:50.387Z,0.18
2023-02-15T06:09:19.533Z,0.19
2023-02-15T06:11:47.984Z,0.24
2023-02-15T06:14:16.504Z,0.33
2023-02-15T06:16:44.997Z,0.38
2023-02-15T06:19:13.597Z,0.45
2023-02-15T06:21:42.072Z,0.50
2023-02-15T06:24:11.000Z,0.56
2023-02-15T06:26:39.505Z,0.58
2023-02-15T06:29:08.500Z,0.68
2023-02-15T06:31:37.148Z,0.85
2023-02-15T06:34:06.152Z,0.91
2023-02-15T06:36:34.683Z,0.91
2023-02-15T06:39:04.216Z,1.00
2023-02-15T06:41:32.808Z,1.07
2023-02-15T06:44:01.297Z,1.13
2023-02-15T06:46:29.953Z,1.22
2023-02-15T06:48:58.495Z,1.36
2023-02-15T06:51:27.231Z,1.32
2023-02-15T06:53:55.720Z,1.35
2023-02-15T06:56:24.258Z,1.34
2023-02-15T06:58:53.853Z,1.31
2023-02-15T07:01:22.378Z,1.47
2023-02-15T07:03:51.199Z,1.48
2023-02-15T07:06:19.705Z,1.40
2023-02-15T07:08:48.264Z,1.48
2023-02-15T07:11:34.941Z,1.40
2023-02-15T07:14:03.588Z,1.70
2023-02-15T07:16:32.186Z,1.71
2023-02-15T07:19:00.685Z,1.78
2023-02-15T07:21:29.152Z,1.96
2023-02-15T07:23:59.038Z,2.03
2023-02-15T07:26:27.535Z,2.13
2023-02-15T07:28:56.160Z,2.16
2023-02-15T07:31:24.755Z,2.35
2023-02-15T07:33:53.215Z,2.36
2023-02-15T07:36:21.770Z,2.44
2023-02-15T07:38:50.185Z,2.39
2023-02-15T07:41:18.688Z,2.34
2023-02-15T07:43:47.256Z,2.47
2023-02-15T07:46:18.049Z,2.49
2023-02-15T07:48:46.884Z,2.43
2023-02-15T07:51:15.947Z,2.53
2023-02-15T07:53:44.810Z,2.49
2023-02-15T07:56:15.652Z,2.51
2023-02-15T07:58:53.214Z,2.53
2023-02-15T08:01:29.045Z,2.48
2023-02-15T08:03:58.647Z,2.61
2023-02-15T08:06:31.637Z,2.52
2023-02-15T08:09:00.192Z,2.62
2023-02-15T08:11:37.343Z,2.74
2023-02-15T08:14:09.647Z,2.85
2023-02-15T08:16:44.342Z,2.79
2023-02-15T08:19:20.167Z,2.76
2023-02-15T08:21:58.390Z,3.03
2023-02-15T08:24:30.226Z,3.20
2023-02-15T08:26:59.594Z,3.37
2023-02-15T08:29:30.285Z,3.49
2023-02-15T08:32:05.780Z,3.52
2023-02-15T08:34:39.787Z,3.75
2023-02-15T08:37:08.318Z,3.76
2023-02-15T08:39:36.811Z,3.76
2023-02-15T08:42:05.455Z,3.91
2023-02-15T08:44:33.921Z,4.05
2023-02-15T08:47:05.005Z,4.24
2023-02-15T08:49:33.625Z,4.32
2023-02-15T08:52:02.162Z,4.49
2023-02-15T08:54:30.988Z,4.68
2023-02-15T08:57:00.720Z,4.64
2023-02-15T08:59:29.296Z,4.85
2023-02-15T09:01:57.815Z,4.75
2023-02-15T09:04:26.457Z,4.52
2023-02-15T09:06:56.207Z,4.53
2023-02-15T09:09:25.210Z,4.32
2023-02-15T09:11:58.884Z,4.21
2023-02-15T09:14:28.157Z,4.27
2023-02-15T09:16:56.910Z,4.37
2023-02-15T09:19:25.823Z,4.49
2023-02-15T09:21:54.657Z,4.51
2023-02-15T09:24:23.234Z,4.55
2023-02-15T09:26:51.848Z,4.62
2023-02-15T09:29:21.134Z,4.60
2023-02-15T09:31:52.023Z,4.58
2023-02-15T09:34:23.816Z,4.48
2023-02-15T09:36:52.825Z,4.45
2023-02-15T09:39:25.018Z,4.44
2023-02-15T09:41:53.971Z,4.49
2023-02-15T09:44:28.312Z,4.65
2023-02-15T09:47:15.301Z,4.63
2023-02-15T09:50:19.708Z,4.58
2023-02-15T09:53:18.817Z,4.47
2023-02-15T09:55:52.891Z,4.86
2023-02-15T09:58:36.431Z,5.12
2023-02-15T10:01:05.700Z,5.14
2023-02-15T10:03:53.039Z,5.23
2023-02-15T10:06:27.600Z,5.46
2023-02-15T10:09:33.012Z,5.52
2023-02-15T10:12:54.410Z,5.35
2023-02-15T10:15:53.161Z,5.38
2023-02-15T10:18:34.950Z,5.35
2023-02-15T10:21:23.192Z,5.67
2023-02-15T10:24:03.491Z,5.67
2023-02-15T10:29:43.437Z,5.43
2023-02-15T10:32:37.894Z,5.54
2023-02-15T10:35:38.694Z,5.76
2023-02-15T10:39:01.230Z,5.69
2023-02-15T10:42:01.572Z,5.32
2023-02-15T10:44:41.484Z,5.40
2023-02-15T10:47:27.377Z,5.44
2023-02-15T10:50:18.504Z,5.61
2023-02-15T10:53:14.647Z,5.60
2023-02-15T10:55:53.233Z,5.68
2023-02-15T10:58:35.251Z,5.90
2023-02-15T11:01:26.044Z,5.95
2023-02-15T11:04:32.825Z,6.11
2023-02-15T11:07:10.077Z,6.45
2023-02-15T11:09:46.274Z,6.41
2023-02-15T11:12:21.264Z,6.25
2023-02-15T11:15:13.756Z,6.76
2023-02-15T11:17:53.587Z,7.07
2023-02-15T11:20:54.566Z,6.74
2023-02-15T11:23:26.193Z,6.64
2023-02-15T11:26:05.731Z,6.78
2023-02-15T11:29:14.681Z,7.15
2023-02-15T11:32:01.025Z,7.38
2023-02-15T11:34:54.837Z,7.59
2023-02-15T11:37:33.835Z,7.53
2023-02-15T11:40:04.601Z,7.01
2023-02-15T11:42:34.011Z,7.46
2023-02-15T11:45:28.772Z,7.64
2023-02-15T11:47:59.433Z,7.84
2023-02-15T11:50:33.966Z,7.54
2023-02-15T11:53:26.460Z,7.11
2023-02-15T11:55:56.391Z,7.84
2023-02-15T11:58:55.418Z,8.02
2023-02-15T12:01:36.806Z,8.32
2023-02-15T12:04:30.109Z,8.60
2023-02-15T12:07:31.969Z,8.57
2023-02-15T12:10:13.101Z,8.40
2023-02-15T12:12:41.813Z,8.40
2023-02-15T12:15:13.015Z,8.41
2023-02-15T12:17:51.458Z,8.51
2023-02-15T12:20:19.971Z,8.66
2023-02-15T12:22:55.639Z,8.21
2023-02-15T12:25:54.648Z,8.25
2023-02-15T12:28:45.585Z,8.80
2023-02-15T12:31:29.037Z,8.78
2023-02-15T12:34:02.941Z,8.85
2023-02-15T12:36:45.616Z,8.37
2023-02-15T12:39:14.027Z,8.95
2023-02-15T12:41:57.618Z,9.06
2023-02-15T12:44:38.313Z,8.70
2023-02-15T12:47:20.797Z,9.09
2023-02-15T12:50:18.144Z,9.29
2023-02-15T12:52:50.099Z,9.08
2023-02-15T12:55:30.730Z,9.07
2023-02-15T12:58:21.713Z,9.47
2023-02-15T13:01:03.248Z,9.76
2023-02-15T13:03:32.280Z,10.02
2023-02-15T13:06:02.350Z,9.80
2023-02-15T13:08:53.802Z,10.08
2023-02-15T13:11:31.573Z,10.18
2023-02-15T13:14:17.753Z,9.87
2023-02-15T13:16:49.378Z,9.80
2023-02-15T13:19:18.499Z,9.87
2023-02-15T13:21:51.365Z,10.32
2023-02-15T13:24:44.575Z,10.04
2023-02-15T13:27:21.619Z,10.22
2023-02-15T13:29:59.452Z,10.66
2023-02-15T13:32:34.281Z,10.39
2023-02-15T13:35:06.596Z,10.20
2023-02-15T13:37:57.288Z,10.29
2023-02-15T13:40:50.311Z,10.51
2023-02-15T13:44:08.749Z,10.78
2023-02-15T13:47:05.898Z,10.77
2023-02-15T13:49:48.820Z,9.97
2023-02-15T13:52:25.625Z,10.00
2023-02-15T13:55:27.616Z,10.37
2023-02-15T13:58:39.821Z,10.96
2023-02-15T14:01:55.489Z,10.60
2023-02-15T14:05:07.859Z,10.60
2023-02-15T14:07:59.278Z,10.47
2023-02-15T14:10:39.274Z,10.39
2023-02-15T14:13:41.120Z,10.27
2023-02-15T14:16:40.413Z,10.36
2023-02-15T14:19:42.431Z,10.45
2023-02-15T14:22:42.097Z,10.17
2023-02-15T14:25:26.067Z,10.27
2023-02-15T14:28:50.808Z,10.36
2023-02-15T14:31:40.939Z,10.05
2023-02-15T14:34:42.750Z,9.91
2023-02-15T14:37:15.054Z,9.85
2023-02-15T14:40:10.748Z,9.95
2023-02-15T14:42:53.744Z,10.07
2023-02-15T14:45:34.313Z,10.42
2023-02-15T14:48:38.552Z,10.45
2023-02-15T14:51:07.101Z,10.36
2023-02-15T14:53:40.957Z,10.06
2023-02-15T14:56:12.225Z,9.98
2023-02-15T14:58:53.404Z,9.94
2023-02-15T15:01:36.245Z,9.89
2023-02-15T15:04:10.455Z,9.38
2023-02-15T15:06:41.699Z,8.72
2023-02-15T15:09:27.570Z,7.85
2023-02-15T15:12:14.186Z,6.73
2023-02-15T15:14:45.272Z,6.02
2023-02-15T15:17:39.204Z,5.50
2023-02-15T15:21:01.522Z,5.05
2023-02-15T15:23:49.842Z,4.61
2023-02-15T15:26:27.894Z,4.30
2023-02-15T15:29:00.346Z,4.02
2023-02-15T15:31:40.788Z,3.73
2023-02-15T15:35:23.033Z,3.47
2023-02-15T15:38:06.990Z,3.15
2023-02-15T15:41:02.138Z,2.94
2023-02-15T15:44:27.258Z,2.81
2023-02-15T15:46:55.770Z,2.66
2023-02-15T15:49:32.070Z,2.59
2023-02-15T15:52:14.962Z,2.56
2023-02-15T15:54:45.503Z,2.50
2023-02-15T15:57:35.433Z,2.41
2023-02-15T16:00:05.490Z,2.33
2023-02-15T16:02:54.932Z,2.22
2023-02-15T16:05:24.139Z,2.15
2023-02-15T16:07:52.721Z,2.08
2023-02-15T16:10:28.679Z,2.01
2023-02-15T16:12:57.464Z,1.95
2023-02-15T16:15:36.758Z,1.95
2023-02-15T16:18:06.226Z,1.89
2023-02-15T16:20:38.052Z,1.82
2023-02-15T16:23:33.447Z,1.77
2023-02-15T16:26:44.568Z,1.71
2023-02-15T16:29:18.827Z,1.65
2023-02-15T16:32:25.908Z,1.60
2023-02-15T16:35:00.949Z,1.56
2023-02-15T16:37:36.110Z,1.52
2023-02-15T16:40:05.281Z,1.49
2023-02-15T16:42:36.533Z,1.45
2023-02-15T16:45:19.418Z,1.40
2023-02-15T16:47:53.873Z,1.40
2023-02-15T16:50:33.147Z,1.37
2023-02-15T16:53:03.548Z,1.34
2023-02-15T16:55:43.462Z,1.34
2023-02-15T16:58:20.754Z,1.33
2023-02-15T17:00:49.444Z,1.29
2023-02-15T17:03:19.069Z,1.27
2023-02-15T17:05:54.295Z,1.25
2023-02-15T17:08:45.737Z,1.21
2023-02-15T17:11:19.041Z,1.15
2023-02-15T17:14:06.579Z,1.13
2023-02-15T17:16:38.252Z,1.13
2023-02-15T17:19:18.646Z,1.11
2023-02-15T17:21:52.984Z,1.08
2023-02-15T17:24:32.350Z,1.08
2023-02-15T17:27:10.149Z,1.04
2023-02-15T17:29:45.076Z,1.01
2023-02-15T17:32:23.748Z,1.03
2023-02-15T17:35:03.150Z,1.08
2023-02-15T17:37:37.007Z,1.09
2023-02-15T17:40:27.548Z,1.09
2023-02-15T17:42:56.615Z,1.11
2023-02-15T17:45:33.469Z,1.10
2023-02-15T17:48:06.579Z,1.11
2023-02-15T17:50:36.613Z,1.11
2023-02-15T17:53:08.949Z,1.07
2023-02-15T17:55:40.128Z,0.99
2023-02-15T17:58:19.498Z,0.91
2023-02-15T18:01:19.297Z,0.82
2023-02-15T18:04:09.511Z,0.69
2023-02-15T18:07:01.820Z,0.52
2023-02-15T18:09:48.492Z,0.44
2023-02-15T18:12:24.024Z,0.37
2023-02-15T18:14:56.499Z,0.31
2023-02-15T18:17:35.126Z,0.26
2023-02-15T18:20:32.722Z,0.19
2023-02-15T18:23:02.365Z,0.10
2023-02-15T18:25:30.924Z,0.06
2023-02-15T18:27:59.384Z,0.00
2023-02-15T18:30:28.052Z,-0.10
2023-02-15T18:32:59.883Z,-0.20
2023-02-15T18:35:33.201Z,-0.36
2023-02-15T18:38:02.194Z,-0.51
2023-02-15T18:40:30.947Z,-0.65
2023-02-15T18:42:59.616Z,-0.84
2023-02-15T18:45:33.310Z,-1.07
2023-02-15T18:48:01.960Z,-1.27
2023-02-15T18:50:34.536Z,-1.49
2023-02-15T18:53:06.207Z,-1.65
2023-02-15T18:55:35.771Z,-1.79
2023-02-15T18:58:04.384Z,-1.93
2023-02-15T19:00:35.001Z,-2.04
2023-02-15T19:03:04.498Z,-2.15
2023-02-15T19:05:33.761Z,-2.25
2023-02-15T19:08:03.455Z,-2.33
2023-02-15T19:10:33.892Z,-2.38
2023-02-15T19:13:02.327Z,-2.41
2023-02-15T19:15:31.276Z,-2.43
2023-02-15T19:17:59.668Z,-2.47
2023-02-15T19:20:45.719Z,-2.48
2023-02-15T19:23:23.998Z,-2.46
2023-02-15T19:25:54.565Z,-2.39
2023-02-15T19:28:33.889Z,-2.25
2023-02-15T19:31:02.564Z,-2.15
2023-02-15T19:33:31.074Z,-2.12
2023-02-15T19:35:59.686Z,-2.13
2023-02-15T19:38:35.350Z,-2.14
2023-02-15T19:41:09.319Z,-2.09
2023-02-15T19:43:38.210Z,-2.01
2023-02-15T19:46:06.955Z,-1.98
2023-02-15T19:48:35.597Z,-1.98
2023-02-15T19:51:04.945Z,-1.98
2023-02-15T19:53:33.705Z,-1.99
2023-02-15T19:56:02.601Z,-1.99
2023-02-15T19:58:31.322Z,-2.01
2023-02-15T20:00:59.759Z,-2.03
2023-02-15T20:03:28.241Z,-2.07
2023-02-15T20:05:56.776Z,-2.09
2023-02-15T20:08:25.588Z,-2.13
2023-02-15T20:10:54.034Z,-2.21
2023-02-15T20:13:22.527Z,-2.26
2023-02-15T20:15:51.974Z,-2.35
2023-02-15T20:18:22.599Z,-2.46
2023-02-15T20:20:55.009Z,-2.56
2023-02-15T20:23:33.903Z,-2.65
2023-02-15T20:26:19.227Z,-2.74
2023-02-15T20:28:48.669Z,-2.83
2023-02-15T20:31:20.638Z,-2.89
2023-02-15T20:33:49.687Z,-2.95
2023-02-15T20:36:23.215Z,-3.03
2023-02-15T20:38:51.788Z,-3.10
2023-02-15T20:41:37.760Z,-3.20
2023-02-15T20:44:18.015Z,-3.31
2023-02-15T20:46:47.784Z,-3.40
2023-02-15T20:49:16.626Z,-3.43
2023-02-15T20:51:47.157Z,-3.39
2023-02-15T20:54:19.453Z,-3.32
2023-02-15T20:56:48.252Z,-3.23
2023-02-15T20:59:32.365Z,-3.13
2023-02-15T21:02:23.600Z,-3.00
2023-02-15T21:04:52.173Z,-2.88
2023-02-15T21:07:22.519Z,-2.80
2023-02-15T21:09:52.507Z,-2.69
2023-02-15T21:12:22.282Z,-2.60
2023-02-15T21:14:50.739Z,-2.53
2023-02-15T21:17:19.184Z,-2.44
2023-02-15T21:19:47.796Z,-2.35
2023-02-15T21:22:16.614Z,-2.28
2023-02-15T21:24:51.026Z,-2.22
2023-02-15T21:27:19.589Z,-2.15
2023-02-15T21:29:48.038Z,-2.05
2023-02-15T21:32:16.622Z,-1.95
2023-02-15T21:34:45.172Z,-1.82
2023-02-15T21:37:35.747Z,-1.76
2023-02-15T21:40:07.059Z,-1.74
2023-02-15T21:42:53.696Z,-1.73
2023-02-15T21:45:40.437Z,-1.70
2023-02-15T21:48:09.540Z,-1.67
2023-02-15T21:50:56.831Z,-1.66
2023-02-15T21:53:36.516Z,-1.63
2023-02-15T21:56:09.765Z,-1.56
2023-02-15T21:58:38.511Z,-1.48
2023-02-15T22:01:07.844Z,-1.43
2023-02-15T22:03:38.588Z,-1.37
2023-02-15T22:06:07.321Z,-1.33
2023-02-15T22:08:35.896Z,-1.31
2023-02-15T22:11:13.286Z,-1.28
2023-02-15T22:13:43.109Z,-1.29
2023-02-15T22:16:18.393Z,-1.29
2023-02-15T22:18:48.142Z,-1.25
2023-02-15T22:21:16.886Z,-1.20
2023-02-15T22:23:47.198Z,-1.16
2023-02-15T22:26:28.138Z,-1.12
2023-02-15T22:28:57.174Z,-1.07
2023-02-15T22:31:25.718Z,-1.07
2023-02-15T22:33:55.488Z,-1.07
2023-02-15T22:36:28.906Z,-1.06
2023-02-15T22:38:58.014Z,-1.05
2023-02-15T22:41:30.055Z,-1.07
2023-02-15T22:43:58.670Z,-1.09
2023-02-15T22:46:27.303Z,-1.08
2023-02-15T22:48:55.729Z,-1.09
2023-02-15T22:51:25.232Z,-1.06
2023-02-15T22:53:54.037Z,-1.02
2023-02-15T22:56:37.265Z,-0.97
2023-02-15T22:59:24.730Z,-0.96
2023-02-15T23:01:53.513Z,-0.95
2023-02-15T23:04:25.590Z,-0.95
2023-02-15T23:06:55.483Z,-0.94
2023-02-15T23:09:24.375Z,-0.96
2023-02-15T23:11:54.036Z,-0.96
2023-02-15T23:14:22.442Z,-0.93
2023-02-15T23:16:51.184Z,-0.89
2023-02-15T23:19:20.113Z,-0.84
2023-02-15T23:21:49.021Z,-0.80
2023-02-15T23:24:30.003Z,-0.75
2023-02-15T23:27:18.422Z,-0.75
2023-02-15T23:29:47.006Z,-0.73
2023-02-15T23:32:16.056Z,-0.75
2023-02-15T23:34:44.697Z,-0.76
2023-02-15T23:37:14.575Z,-0.78
2023-02-15T23:40:01.425Z,-0.82
2023-02-15T23:42:33.652Z,-0.85
2023-02-15T23:45:02.862Z,-0.88
2023-02-15T23:47:53.052Z,-0.91
2023-02-15T23:50:28.437Z,-0.88
2023-02-15T23:52:57.903Z,-0.98
2023-02-15T23:55:43.628Z,-1.03
2023-02-15T23:58:21.063Z,-1.06
